Time;durP1;ratioP1;P1;durP2;ratioP2;P2;SDS_P1;SDS_P2;PMS_P1;PMS_P2;Temp;Humidity;BMP_temperature;BMP_pressure;BME280_temperature;BME280_humidity;BME280_pressure;Samples;Min_cycle;Max_cycle;Signal;HPM_P1;HPM_P2
2024/01/02 00:00:13;;;;;;;15.20;7.63;;;;;;;;;;6128891;23;20177;-87
2024/01/02 00:02:42;;;;;;;7.63;5.93;;;;;;;;;;6153650;23;20172;-87
2024/01/02 00:05:10;;;;;;;14.93;6.27;;;;;;;;;;6153808;23;20214;-87
2024/01/02 00:07:39;;;;;;;11.97;5.13;;;;;;;;;;6128232;23;20258;-87
2024/01/02 00:10:10;;;;;;;15.33;6.70;;;;;;;;;;6154200;23;20263;-87
2024/01/02 00:12:38;;;;;;;12.37;7.30;;;;;;;;;;6127734;23;20234;-87
2024/01/02 00:15:07;;;;;;;10.23;6.03;;;;;;;;;;6153816;23;20175;-87
2024/01/02 00:17:36;;;;;;;13.40;7.27;;;;;;;;;;6128718;23;20185;-87
2024/01/02 00:20:05;;;;;;;14.43;8.10;;;;;;;;;;6127897;23;20176;-87
2024/01/02 00:22:34;;;;;;;10.00;4.90;;;;;;;;;;6127350;23;20275;-87
2024/01/02 00:25:05;;;;;;;10.87;7.40;;;;;;;;;;6153567;23;20271;-87
2024/01/02 00:27:35;;;;;;;7.47;5.90;;;;;;;;;;6154135;23;20172;-87
2024/01/02 00:30:04;;;;;;;11.47;6.83;;;;;;;;;;6154077;23;20236;-86
2024/01/02 00:32:33;;;;;;;6.67;4.67;;;;;;;;;;6153761;23;20177;-87
2024/01/02 00:35:03;;;;;;;12.53;6.70;;;;;;;;;;6122474;23;20208;-87
2024/01/02 00:37:32;;;;;;;9.60;5.73;;;;;;;;;;6124587;23;20195;-87
2024/01/02 00:40:00;;;;;;;12.93;6.73;;;;;;;;;;6124658;23;20276;-87
2024/01/02 00:42:29;;;;;;;10.80;5.63;;;;;;;;;;6123122;23;20218;-87
2024/01/02 00:44:59;;;;;;;8.30;4.63;;;;;;;;;;6122221;23;20248;-87
2024/01/02 00:47:28;;;;;;;10.10;6.27;;;;;;;;;;6124885;23;20227;-87
2024/01/02 00:49:56;;;;;;;9.77;5.10;;;;;;;;;;6122572;23;20272;-87
2024/01/02 00:52:25;;;;;;;10.53;5.80;;;;;;;;;;6123457;23;20176;-87
2024/01/02 00:54:53;;;;;;;13.40;5.80;;;;;;;;;;6122225;23;20177;-87
2024/01/02 00:57:25;;;;;;;10.20;6.00;;;;;;;;;;6122765;23;20181;-87
2024/01/02 00:59:54;;;;;;;7.43;4.73;;;;;;;;;;6123053;23;20173;-87
2024/01/02 01:02:24;;;;;;;8.40;4.50;;;;;;;;;;6122533;23;20196;-87
2024/01/02 01:04:52;;;;;;;10.37;6.10;;;;;;;;;;6123042;23;20248;-87
2024/01/02 01:07:21;;;;;;;8.40;5.63;;;;;;;;;;6122766;23;20202;-87
2024/01/02 01:09:49;;;;;;;11.80;5.77;;;;;;;;;;6124530;23;20180;-87
2024/01/02 01:12:17;;;;;;;8.83;5.23;;;;;;;;;;6122685;23;20180;-87
2024/01/02 01:14:46;;;;;;;6.40;4.77;;;;;;;;;;6122063;23;20182;-87
2024/01/02 01:17:14;;;;;;;7.00;4.47;;;;;;;;;;6122165;23;20199;-87
2024/01/02 01:19:44;;;;;;;8.87;6.00;;;;;;;;;;6123052;23;20275;-87
2024/01/02 01:22:13;;;;;;;6.87;4.43;;;;;;;;;;6124283;23;20172;-87
2024/01/02 01:24:41;;;;;;;8.30;5.07;;;;;;;;;;6123207;23;20213;-87
2024/01/02 01:27:10;;;;;;;4.20;3.80;;;;;;;;;;6123565;23;20180;-87
2024/01/02 01:29:38;;;;;;;9.37;5.00;;;;;;;;;;6124502;23;20176;-87
2024/01/02 01:32:07;;;;;;;5.83;2.63;;;;;;;;;;6124136;23;20182;-87
2024/01/02 01:34:36;;;;;;;10.17;4.07;;;;;;;;;;6121945;23;20256;-87
2024/01/02 01:37:06;;;;;;;5.10;3.70;;;;;;;;;;6123679;23;20183;-86
2024/01/02 01:39:35;;;;;;;6.63;4.40;;;;;;;;;;6124087;23;20169;-87
2024/01/02 01:42:03;;;;;;;4.50;3.07;;;;;;;;;;6122893;23;20186;-87
2024/01/02 01:44:32;;;;;;;7.13;3.60;;;;;;;;;;6123995;23;20176;-87
2024/01/02 01:47:00;;;;;;;4.70;3.77;;;;;;;;;;6122037;23;20176;-87
2024/01/02 01:49:29;;;;;;;6.37;3.70;;;;;;;;;;6122928;23;20185;-87
2024/01/02 01:51:58;;;;;;;6.80;4.43;;;;;;;;;;6123536;23;20187;-87
2024/01/02 01:54:29;;;;;;;7.10;3.80;;;;;;;;;;6123988;23;20260;-87
2024/01/02 01:56:57;;;;;;;7.00;4.50;;;;;;;;;;6125613;23;20168;-87
2024/01/02 01:59:26;;;;;;;6.80;2.90;;;;;;;;;;6124703;23;20172;-87
2024/01/02 02:01:55;;;;;;;5.70;3.23;;;;;;;;;;6125700;23;20210;-87
2024/01/02 02:04:25;;;;;;;5.33;2.73;;;;;;;;;;6124274;23;20180;-87
2024/01/02 02:06:54;;;;;;;6.47;3.30;;;;;;;;;;6123628;23;20215;-87
2024/01/02 02:09:22;;;;;;;4.30;2.67;;;;;;;;;;6125649;23;20189;-87
2024/01/02 02:11:52;;;;;;;5.43;3.63;;;;;;;;;;6124560;23;20208;-87
2024/01/02 02:14:30;;;;;;;5.33;2.67;;;;;;;;;;6125416;23;20174;-87
2024/01/02 02:16:59;;;;;;;5.67;2.90;;;;;;;;;;6123718;23;20189;-87
2024/01/02 02:19:27;;;;;;;6.43;3.63;;;;;;;;;;6125442;23;20218;-87
2024/01/02 02:21:58;;;;;;;5.53;3.13;;;;;;;;;;6124029;23;20243;-88
2024/01/02 02:24:28;;;;;;;7.17;3.67;;;;;;;;;;6125658;23;20177;-87
2024/01/02 02:26:58;;;;;;;5.37;3.57;;;;;;;;;;6124833;23;20189;-87
2024/01/02 02:29:26;;;;;;;8.67;3.40;;;;;;;;;;6124517;23;20176;-87
2024/01/02 02:31:55;;;;;;;5.17;2.70;;;;;;;;;;6125414;23;20173;-87
2024/01/02 02:34:23;;;;;;;6.00;3.37;;;;;;;;;;6119068;23;20214;-87
2024/01/02 02:36:52;;;;;;;2.57;2.20;;;;;;;;;;6124977;23;20188;-87
2024/01/02 02:39:21;;;;;;;4.97;2.83;;;;;;;;;;6125228;23;20174;-87
2024/01/02 02:41:50;;;;;;;5.13;3.30;;;;;;;;;;6100096;23;20263;-87
2024/01/02 02:44:19;;;;;;;4.77;2.53;;;;;;;;;;6099531;23;20211;-88
2024/01/02 02:46:47;;;;;;;2.63;2.40;;;;;;;;;;6124682;23;20184;-87
2024/01/02 02:49:16;;;;;;;4.67;2.57;;;;;;;;;;6125125;23;20169;-88
2024/01/02 02:51:45;;;;;;;2.37;2.00;;;;;;;;;;6099059;23;20177;-87
2024/01/02 02:54:13;;;;;;;3.67;2.10;;;;;;;;;;6125548;23;20180;-87
2024/01/02 02:56:43;;;;;;;1.97;1.87;;;;;;;;;;6125159;23;20275;-88
2024/01/02 02:59:13;;;;;;;2.90;2.47;;;;;;;;;;6098875;23;20180;-87
2024/01/02 03:01:44;;;;;;;3.23;2.93;;;;;;;;;;6123329;23;20259;-87
2024/01/02 03:04:13;;;;;;;3.73;2.23;;;;;;;;;;6125575;23;20178;-87
2024/01/02 03:06:42;;;;;;;6.97;2.90;;;;;;;;;;6098605;23;20243;-88
2024/01/02 03:09:11;;;;;;;3.20;2.33;;;;;;;;;;6124662;23;20174;-87
2024/01/02 03:11:39;;;;;;;3.87;3.03;;;;;;;;;;6124824;23;20245;-87
2024/01/02 03:14:08;;;;;;;2.50;2.23;;;;;;;;;;6099424;23;20199;-87
2024/01/02 03:16:38;;;;;;;4.23;2.40;;;;;;;;;;6099015;23;20174;-87
2024/01/02 03:19:07;;;;;;;4.03;3.03;;;;;;;;;;6124675;23;20198;-87
2024/01/02 03:21:35;;;;;;;3.40;2.40;;;;;;;;;;6099250;23;20201;-87
2024/01/02 03:24:04;;;;;;;3.37;2.87;;;;;;;;;;6099320;23;20182;-87
2024/01/02 03:26:33;;;;;;;3.53;2.63;;;;;;;;;;6124736;23;20189;-87
2024/01/02 03:29:02;;;;;;;4.93;2.80;;;;;;;;;;6124460;23;20184;-87
2024/01/02 03:31:36;;;;;;;3.13;2.93;;;;;;;;;;6098987;23;20181;-87
2024/01/02 03:34:05;;;;;;;2.47;2.20;;;;;;;;;;6130106;23;20200;-87
2024/01/02 03:36:37;;;;;;;3.00;2.70;;;;;;;;;;6099361;23;20177;-87
2024/01/02 03:39:06;;;;;;;3.67;3.17;;;;;;;;;;6098186;23;20272;-87
2024/01/02 03:41:34;;;;;;;3.17;2.90;;;;;;;;;;6098780;23;20183;-87
2024/01/02 03:44:03;;;;;;;3.17;2.63;;;;;;;;;;6124634;23;20173;-87
2024/01/02 03:46:31;;;;;;;2.83;2.50;;;;;;;;;;6099510;23;20188;-88
2024/01/02 03:49:00;;;;;;;3.20;2.70;;;;;;;;;;6124416;23;20483;-87
2024/01/02 03:51:30;;;;;;;2.77;2.57;;;;;;;;;;6124445;23;20170;-87
2024/01/02 03:53:58;;;;;;;3.47;3.00;;;;;;;;;;6099083;23;20268;-87
2024/01/02 03:56:27;;;;;;;3.53;3.00;;;;;;;;;;6124514;23;20173;-87
2024/01/02 03:58:55;;;;;;;3.03;2.70;;;;;;;;;;6098264;23;20199;-87
2024/01/02 04:01:24;;;;;;;3.70;3.17;;;;;;;;;;6124283;23;20173;-87
2024/01/02 04:03:52;;;;;;;3.00;2.73;;;;;;;;;;6099162;23;20307;-87
2024/01/02 04:06:21;;;;;;;3.40;3.10;;;;;;;;;;6098536;23;20228;-88
2024/01/02 04:08:51;;;;;;;3.97;3.47;;;;;;;;;;6098564;23;20180;-86
2024/01/02 04:11:19;;;;;;;4.70;4.17;;;;;;;;;;6098078;23;20177;-87
2024/01/02 04:13:48;;;;;;;3.60;3.30;;;;;;;;;;6098682;23;20172;-87
2024/01/02 04:16:17;;;;;;;3.70;3.37;;;;;;;;;;6098932;23;20216;-87
2024/01/02 04:18:45;;;;;;;2.90;2.50;;;;;;;;;;6098580;23;20209;-87
2024/01/02 04:21:14;;;;;;;4.10;3.70;;;;;;;;;;6124043;23;20227;-87
2024/01/02 04:23:42;;;;;;;2.30;2.10;;;;;;;;;;6124292;23;20188;-87
2024/01/02 04:26:12;;;;;;;3.60;3.30;;;;;;;;;;6124552;23;20231;-86
2024/01/02 04:28:41;;;;;;;3.87;3.47;;;;;;;;;;6098477;23;20201;-86
2024/01/02 04:31:09;;;;;;;4.10;3.70;;;;;;;;;;6097812;23;20177;-87
2024/01/02 04:33:38;;;;;;;2.60;2.40;;;;;;;;;;6098803;23;20292;-87
2024/01/02 04:36:07;;;;;;;3.80;3.07;;;;;;;;;;6098339;23;20212;-87
2024/01/02 04:38:36;;;;;;;4.40;3.73;;;;;;;;;;6099050;23;20212;-87
2024/01/02 04:41:06;;;;;;;3.93;3.30;;;;;;;;;;6123923;23;20173;-86
2024/01/02 04:43:36;;;;;;;3.37;2.70;;;;;;;;;;6124259;23;20201;-87
2024/01/02 04:46:05;;;;;;;2.53;2.33;;;;;;;;;;6098589;23;20236;-87
2024/01/02 04:48:33;;;;;;;1.77;1.53;;;;;;;;;;6124407;23;20180;-87
2024/01/02 04:51:02;;;;;;;4.17;3.77;;;;;;;;;;6098080;23;20178;-87
2024/01/02 04:53:30;;;;;;;3.03;2.60;;;;;;;;;;6097924;23;20209;-86
2024/01/02 04:55:59;;;;;;;4.33;2.30;;;;;;;;;;6098825;23;20184;-87
2024/01/02 04:58:27;;;;;;;2.07;1.43;;;;;;;;;;6098908;23;20171;-87
2024/01/02 05:00:57;;;;;;;1.63;1.53;;;;;;;;;;6097881;23;20178;-87
2024/01/02 05:03:26;;;;;;;4.27;2.30;;;;;;;;;;6123614;23;20178;-87
2024/01/02 05:05:54;;;;;;;6.70;2.17;;;;;;;;;;6098551;23;20199;-87
2024/01/02 05:08:23;;;;;;;7.60;3.10;;;;;;;;;;6124507;23;20195;-87
2024/01/02 05:10:52;;;;;;;7.80;3.30;;;;;;;;;;6098070;23;20190;-87
2024/01/02 05:13:21;;;;;;;3.07;2.17;;;;;;;;;;6097496;23;20191;-87
2024/01/02 05:15:50;;;;;;;10.47;3.60;;;;;;;;;;6098717;23;20175;-86
2024/01/02 05:18:22;;;;;;;7.77;3.13;;;;;;;;;;6098557;23;20179;-87
2024/01/02 05:20:51;;;;;;;9.80;3.17;;;;;;;;;;6124349;23;20266;-87
2024/01/02 05:23:19;;;;;;;11.20;2.47;;;;;;;;;;6097937;23;20267;-87
2024/01/02 05:25:48;;;;;;;16.37;3.30;;;;;;;;;;6124488;23;20239;-87
2024/01/02 05:28:17;;;;;;;11.90;2.20;;;;;;;;;;6126117;23;20194;-87
2024/01/02 05:30:46;;;;;;;13.50;4.10;;;;;;;;;;6126111;23;20251;-88
2024/01/02 05:33:14;;;;;;;16.50;3.20;;;;;;;;;;6125376;23;20176;-87
2024/01/02 05:35:44;;;;;;;14.50;5.07;;;;;;;;;;6146194;23;20207;-87
2024/01/02 05:38:13;;;;;;;14.27;4.83;;;;;;;;;;6155681;23;20241;-87
2024/01/02 05:40:41;;;;;;;16.40;4.60;;;;;;;;;;6155691;23;20176;-86
2024/01/02 05:43:10;;;;;;;16.03;4.20;;;;;;;;;;6128888;23;20246;-87
2024/01/02 05:45:39;;;;;;;14.80;4.33;;;;;;;;;;6129374;23;20176;-87
2024/01/02 05:48:09;;;;;;;10.87;3.47;;;;;;;;;;6155832;23;20191;-87
2024/01/02 05:50:38;;;;;;;23.80;6.73;;;;;;;;;;6129844;23;20182;-88
2024/01/02 05:53:10;;;;;;;10.97;4.00;;;;;;;;;;6154894;23;20168;-87
2024/01/02 05:55:38;;;;;;;15.57;3.53;;;;;;;;;;6129293;23;20227;-87
2024/01/02 05:58:07;;;;;;;28.57;3.57;;;;;;;;;;6129358;23;20176;-87
2024/01/02 06:00:36;;;;;;;25.80;6.27;;;;;;;;;;6129894;23;20238;-87
2024/01/02 06:03:05;;;;;;;21.20;4.97;;;;;;;;;;6128901;23;20248;-86
2024/01/02 06:05:33;;;;;;;27.37;5.33;;;;;;;;;;6154688;23;20184;-87
2024/01/02 06:08:02;;;;;;;14.17;3.37;;;;;;;;;;6129388;23;20195;-87
2024/01/02 06:10:32;;;;;;;6.00;2.83;;;;;;;;;;6129002;23;20180;-87
2024/01/02 06:13:00;;;;;;;11.57;3.43;;;;;;;;;;6128806;23;20201;-87
2024/01/02 06:15:30;;;;;;;9.27;3.33;;;;;;;;;;6128876;23;20263;-87
2024/01/02 06:17:58;;;;;;;9.43;3.93;;;;;;;;;;6155446;23;20199;-87
2024/01/02 06:20:27;;;;;;;11.13;3.23;;;;;;;;;;6129016;23;20175;-87
2024/01/02 06:22:56;;;;;;;13.00;2.80;;;;;;;;;;6155079;23;20182;-87
2024/01/02 06:25:24;;;;;;;25.03;5.07;;;;;;;;;;6128635;23;20176;-87
2024/01/02 06:27:54;;;;;;;1.70;1.33;;;;;;;;;;6129171;23;20192;-87
2024/01/02 06:30:23;;;;;;;8.30;2.30;;;;;;;;;;6129223;23;20251;-87
2024/01/02 06:32:51;;;;;;;6.87;2.93;;;;;;;;;;6154766;23;20392;-87
2024/01/02 06:35:20;;;;;;;15.53;4.03;;;;;;;;;;6126116;23;20307;-87
2024/01/02 06:37:49;;;;;;;29.47;4.13;;;;;;;;;;6101950;23;20196;-87
2024/01/02 06:40:18;;;;;;;7.73;2.23;;;;;;;;;;6100161;23;20208;-87
2024/01/02 06:42:47;;;;;;;11.83;5.03;;;;;;;;;;6100167;23;20243;-87
2024/01/02 06:45:17;;;;;;;10.47;3.50;;;;;;;;;;6100135;23;20176;-87
2024/01/02 06:47:45;;;;;;;13.57;4.10;;;;;;;;;;6125589;23;20200;-87
2024/01/02 06:50:14;;;;;;;18.47;5.33;;;;;;;;;;6125767;23;20179;-87
2024/01/02 06:52:43;;;;;;;10.10;3.00;;;;;;;;;;6125608;23;20172;-87
2024/01/02 06:55:13;;;;;;;9.37;2.60;;;;;;;;;;6099244;23;20174;-87
2024/01/02 06:57:42;;;;;;;7.73;2.67;;;;;;;;;;6125407;23;20176;-87
2024/01/02 07:00:13;;;;;;;12.10;3.43;;;;;;;;;;6097614;23;20180;-85
2024/01/02 07:02:44;;;;;;;12.27;4.23;;;;;;;;;;6099473;23;20180;-87
2024/01/02 07:05:15;;;;;;;7.40;2.60;;;;;;;;;;6124582;23;20207;-86
2024/01/02 07:07:45;;;;;;;5.27;2.13;;;;;;;;;;6099856;23;20196;-85
2024/01/02 07:10:13;;;;;;;8.13;2.33;;;;;;;;;;6099557;23;20235;-86
2024/01/02 07:12:42;;;;;;;7.07;2.10;;;;;;;;;;6100179;23;20184;-86
2024/01/02 07:15:11;;;;;;;3.97;2.17;;;;;;;;;;6099639;23;20188;-86
2024/01/02 07:17:40;;;;;;;10.23;3.47;;;;;;;;;;6125564;23;20173;-87
2024/01/02 07:20:12;;;;;;;8.23;2.40;;;;;;;;;;6125677;23;20231;-86
2024/01/02 07:22:41;;;;;;;5.87;2.77;;;;;;;;;;6099181;23;20180;-87
2024/01/02 07:25:10;;;;;;;12.23;2.90;;;;;;;;;;6099249;23;20183;-86
2024/01/02 07:27:39;;;;;;;7.60;2.50;;;;;;;;;;6097925;23;20228;-86
2024/01/02 07:30:08;;;;;;;4.87;2.00;;;;;;;;;;6099457;23;20180;-86
2024/01/02 07:32:38;;;;;;;6.60;2.43;;;;;;;;;;6099896;23;20176;-86
2024/01/02 07:35:07;;;;;;;8.03;3.40;;;;;;;;;;6098655;23;20204;-86
2024/01/02 07:37:37;;;;;;;25.67;5.20;;;;;;;;;;6122646;23;20204;-86
2024/01/02 07:40:07;;;;;;;13.93;3.93;;;;;;;;;;6129954;23;20168;-85
2024/01/02 07:42:36;;;;;;;4.70;2.20;;;;;;;;;;6155083;23;20182;-85
2024/01/02 07:45:04;;;;;;;7.20;1.93;;;;;;;;;;6128573;23;20178;-85
2024/01/02 07:47:33;;;;;;;15.47;2.10;;;;;;;;;;6128679;23;20271;-86
2024/01/02 07:50:04;;;;;;;14.10;2.63;;;;;;;;;;6127963;23;20196;-87
2024/01/02 07:52:33;;;;;;;4.87;1.47;;;;;;;;;;6154750;23;20183;-86
2024/01/02 07:55:03;;;;;;;3.63;1.87;;;;;;;;;;6129043;23;20211;-87
2024/01/02 07:57:32;;;;;;;8.80;2.17;;;;;;;;;;6129498;23;20180;-87
2024/01/02 08:00:03;;;;;;;8.30;2.07;;;;;;;;;;6128612;23;20176;-86
2024/01/02 08:02:33;;;;;;;13.77;2.83;;;;;;;;;;6154930;23;20199;-87
2024/01/02 08:05:03;;;;;;;15.80;2.87;;;;;;;;;;6128995;23;20254;-87
2024/01/02 08:07:32;;;;;;;9.20;3.10;;;;;;;;;;6155026;23;20167;-88
2024/01/02 08:10:04;;;;;;;8.53;2.60;;;;;;;;;;6128829;23;20198;-86
2024/01/02 08:12:40;;;;;;;7.70;3.50;;;;;;;;;;6128878;23;20175;-86
2024/01/02 08:15:09;;;;;;;8.30;2.00;;;;;;;;;;6128782;23;20198;-87
2024/01/02 08:17:37;;;;;;;8.77;2.73;;;;;;;;;;6128112;23;20180;-87
2024/01/02 08:20:10;;;;;;;6.57;2.50;;;;;;;;;;6127762;23;20175;-86
2024/01/02 08:22:43;;;;;;;5.90;3.33;;;;;;;;;;6155318;23;20235;-86
2024/01/02 08:25:14;;;;;;;8.13;3.40;;;;;;;;;;6128864;23;20227;-86
2024/01/02 08:27:46;;;;;;;11.80;4.03;;;;;;;;;;6129028;23;20195;-87
2024/01/02 08:30:18;;;;;;;8.10;2.93;;;;;;;;;;6128453;23;20191;-87
2024/01/02 08:32:48;;;;;;;18.03;2.47;;;;;;;;;;6129220;23;20176;-87
2024/01/02 08:35:17;;;;;;;8.07;3.60;;;;;;;;;;6128804;23;20172;-87
2024/01/02 08:37:45;;;;;;;10.27;2.50;;;;;;;;;;6127677;23;20242;-88
2024/01/02 08:40:17;;;;;;;16.13;5.00;;;;;;;;;;6128708;23;20182;-87
2024/01/02 08:42:47;;;;;;;8.57;2.43;;;;;;;;;;6154769;23;20175;-86
2024/01/02 08:45:16;;;;;;;15.63;4.37;;;;;;;;;;6128915;23;20251;-87
2024/01/02 08:47:44;;;;;;;7.63;3.20;;;;;;;;;;6154525;23;20222;-85
2024/01/02 08:50:13;;;;;;;17.43;2.40;;;;;;;;;;6153881;23;20191;-86
2024/01/02 08:52:47;;;;;;;7.60;2.63;;;;;;;;;;6128762;23;20175;-86
2024/01/02 08:55:16;;;;;;;10.13;2.83;;;;;;;;;;6128947;23;20175;-84
2024/01/02 08:57:46;;;;;;;13.57;2.53;;;;;;;;;;6128292;23;20198;-87
2024/01/02 09:00:15;;;;;;;8.10;3.23;;;;;;;;;;6128103;23;20176;-88
2024/01/02 09:02:44;;;;;;;10.10;3.20;;;;;;;;;;6129285;23;20175;-87
2024/01/02 09:05:13;;;;;;;15.67;5.17;;;;;;;;;;6129522;23;20223;-87
2024/01/02 09:07:47;;;;;;;12.00;3.57;;;;;;;;;;6128721;23;20266;-87
2024/01/02 09:10:15;;;;;;;8.63;4.30;;;;;;;;;;6128277;23;20263;-87
2024/01/02 09:12:44;;;;;;;14.37;5.13;;;;;;;;;;6128778;23;20176;-87
2024/01/02 09:15:15;;;;;;;21.73;3.10;;;;;;;;;;6128314;23;20214;-87
2024/01/02 09:17:43;;;;;;;8.93;3.97;;;;;;;;;;6129083;23;20217;-87
2024/01/02 09:20:12;;;;;;;10.57;3.47;;;;;;;;;;6127493;23;20224;-87
2024/01/02 09:22:45;;;;;;;17.07;6.80;;;;;;;;;;6128389;23;20183;-87
2024/01/02 09:25:16;;;;;;;31.60;6.73;;;;;;;;;;6128202;23;20175;-87
2024/01/02 09:27:45;;;;;;;2.93;1.13;;;;;;;;;;6154626;23;20167;-87
2024/01/02 09:30:15;;;;;;;9.30;2.90;;;;;;;;;;6127323;23;20200;-89
2024/01/02 09:32:46;;;;;;;15.60;3.30;;;;;;;;;;6128005;23;20206;-87
2024/01/02 09:35:16;;;;;;;9.93;2.33;;;;;;;;;;6128476;23;20199;-87
2024/01/02 09:37:44;;;;;;;22.20;5.47;;;;;;;;;;6127668;23;20208;-87
2024/01/02 09:40:16;;;;;;;18.10;6.47;;;;;;;;;;6128523;23;20203;-87
2024/01/02 09:42:55;;;;;;;14.40;3.30;;;;;;;;;;6153830;23;20168;-87
2024/01/02 09:45:28;;;;;;;12.07;11.13;;;;;;;;;;6128038;23;20172;-87
2024/01/02 09:48:07;;;;;;;20.93;4.20;;;;;;;;;;6128742;23;20183;-87
2024/01/02 09:50:45;;;;;;;14.23;4.10;;;;;;;;;;6127878;23;20191;-87
2024/01/02 09:53:25;;;;;;;11.60;3.73;;;;;;;;;;6154534;23;20183;-88
2024/01/02 09:55:59;;;;;;;11.03;3.13;;;;;;;;;;6154102;23;20168;-87
2024/01/02 09:58:31;;;;;;;22.90;8.57;;;;;;;;;;6128221;23;20182;-88
2024/01/02 10:01:10;;;;;;;10.57;3.53;;;;;;;;;;6154186;23;20179;-87
2024/01/02 10:03:56;;;;;;;33.07;8.97;;;;;;;;;;6129056;23;20186;-88
2024/01/02 10:06:36;;;;;;;18.10;3.10;;;;;;;;;;6125545;23;20267;-87
2024/01/02 10:09:19;;;;;;;11.03;2.07;;;;;;;;;;6127781;23;20206;-88
2024/01/02 10:11:52;;;;;;;19.87;6.17;;;;;;;;;;6127880;23;20183;-87
2024/01/02 10:14:28;;;;;;;7.03;2.13;;;;;;;;;;6130547;23;20182;-87
2024/01/02 10:17:07;;;;;;;6.07;3.37;;;;;;;;;;6156322;23;20167;-88
2024/01/02 10:19:41;;;;;;;11.80;5.90;;;;;;;;;;6129929;23;20179;-88
2024/01/02 10:22:15;;;;;;;10.73;5.30;;;;;;;;;;6128887;23;20175;-88
2024/01/02 10:24:48;;;;;;;19.63;5.73;;;;;;;;;;6129702;23;20203;-89
2024/01/02 10:27:22;;;;;;;10.23;5.00;;;;;;;;;;6130281;23;20202;-89
2024/01/02 10:29:59;;;;;;;17.57;7.37;;;;;;;;;;6129225;23;20203;-88
2024/01/02 10:32:38;;;;;;;20.47;5.63;;;;;;;;;;6129572;23;20180;-88
2024/01/02 10:35:14;;;;;;;19.83;4.30;;;;;;;;;;6129795;23;20171;-87
2024/01/02 10:37:47;;;;;;;27.90;7.77;;;;;;;;;;6156015;23;20195;-87
2024/01/02 10:40:23;;;;;;;9.07;4.23;;;;;;;;;;6130116;23;20171;-87
2024/01/02 10:42:58;;;;;;;25.70;6.50;;;;;;;;;;6129937;23;20207;-87
2024/01/02 10:45:29;;;;;;;17.53;4.87;;;;;;;;;;6129611;23;20238;-87
2024/01/02 10:48:11;;;;;;;3.77;3.40;;;;;;;;;;6130794;23;20238;-88
2024/01/02 10:50:54;;;;;;;17.83;4.67;;;;;;;;;;6129606;23;20202;-88
2024/01/02 10:53:33;;;;;;;13.27;4.33;;;;;;;;;;6129435;23;20176;-86
2024/01/02 10:56:07;;;;;;;10.17;3.53;;;;;;;;;;6156542;23;20178;-87
2024/01/02 10:58:38;;;;;;;12.90;3.17;;;;;;;;;;6129282;23;20211;-86
2024/01/02 11:01:14;;;;;;;6.60;3.77;;;;;;;;;;6128761;23;20272;-86
2024/01/02 11:03:48;;;;;;;4.97;2.67;;;;;;;;;;6129003;23;20180;-88
2024/01/02 11:06:19;;;;;;;11.00;3.20;;;;;;;;;;6129289;23;20353;-87
2024/01/02 11:08:54;;;;;;;17.87;4.57;;;;;;;;;;6129727;23;20175;-87
2024/01/02 11:11:23;;;;;;;9.77;4.00;;;;;;;;;;6128979;23;20222;-88
2024/01/02 11:13:54;;;;;;;17.07;3.83;;;;;;;;;;6129052;23;20179;-87
2024/01/02 11:16:24;;;;;;;14.40;3.70;;;;;;;;;;6129625;23;20176;-88
2024/01/02 11:18:57;;;;;;;18.63;4.00;;;;;;;;;;6129631;23;20195;-87
2024/01/02 11:21:33;;;;;;;14.73;3.60;;;;;;;;;;6128598;23;20194;-87
2024/01/02 11:24:02;;;;;;;10.77;3.63;;;;;;;;;;6154569;23;20175;-88
2024/01/02 11:26:32;;;;;;;8.63;3.60;;;;;;;;;;6129593;23;20266;-87
2024/01/02 11:29:02;;;;;;;12.80;2.73;;;;;;;;;;6155757;23;20176;-88
2024/01/02 11:31:32;;;;;;;4.87;0.90;;;;;;;;;;6154711;23;20184;-88
2024/01/02 11:34:18;;;;;;;16.33;2.60;;;;;;;;;;6154227;23;20172;-88
2024/01/02 11:36:53;;;;;;;3.97;1.77;;;;;;;;;;6129764;23;20214;-88
2024/01/02 11:39:31;;;;;;;10.10;2.73;;;;;;;;;;6155133;23;20172;-88
2024/01/02 11:42:02;;;;;;;5.07;1.57;;;;;;;;;;6154010;23;20242;-87
2024/01/02 11:44:37;;;;;;;7.57;3.00;;;;;;;;;;6127563;23;20184;-87
2024/01/02 11:47:11;;;;;;;13.47;4.93;;;;;;;;;;6154721;23;20174;-87
2024/01/02 11:49:47;;;;;;;7.60;3.10;;;;;;;;;;6129418;23;20175;-88
2024/01/02 11:52:17;;;;;;;13.50;4.33;;;;;;;;;;6128665;23;20183;-82
2024/01/02 11:54:54;;;;;;;4.73;1.90;;;;;;;;;;6128382;23;20171;-87
2024/01/02 11:57:26;;;;;;;3.57;1.97;;;;;;;;;;6154295;23;20169;-86
2024/01/02 12:00:00;;;;;;;12.77;5.10;;;;;;;;;;6129576;23;20235;-87
2024/01/02 12:02:35;;;;;;;7.90;2.63;;;;;;;;;;6128415;23;20179;-87
2024/01/02 12:05:11;;;;;;;1.73;1.63;;;;;;;;;;6127745;23;20179;-87
2024/01/02 12:07:41;;;;;;;4.47;1.77;;;;;;;;;;6154508;23;20200;-87
2024/01/02 12:10:10;;;;;;;12.00;4.90;;;;;;;;;;6155516;23;20172;-87
2024/01/02 12:12:47;;;;;;;12.13;5.30;;;;;;;;;;6128991;23;20180;-87
2024/01/02 12:15:17;;;;;;;13.13;4.23;;;;;;;;;;6128511;23;20182;-88
2024/01/02 12:17:53;;;;;;;7.40;3.23;;;;;;;;;;6154502;23;20168;-88
2024/01/02 12:20:27;;;;;;;12.67;5.87;;;;;;;;;;6128729;23;20171;-87
2024/01/02 12:22:57;;;;;;;8.50;4.83;;;;;;;;;;6129052;23;20195;-88
2024/01/02 12:25:25;;;;;;;11.60;4.67;;;;;;;;;;6127947;23;20172;-88
2024/01/02 12:27:54;;;;;;;9.20;5.07;;;;;;;;;;6154874;23;20235;-88
2024/01/02 12:30:34;;;;;;;10.27;5.67;;;;;;;;;;6128559;23;20180;-88
2024/01/02 12:33:09;;;;;;;10.13;5.67;;;;;;;;;;6128610;23;20423;-89
2024/01/02 12:35:55;;;;;;;10.20;4.97;;;;;;;;;;6154369;23;20222;-88
2024/01/02 12:38:25;;;;;;;10.70;6.03;;;;;;;;;;6153881;23;20204;-87
2024/01/02 12:40:56;;;;;;;9.87;6.53;;;;;;;;;;6128453;23;20227;-87
2024/01/02 12:43:29;;;;;;;5.47;4.37;;;;;;;;;;6129000;23;20186;-88
2024/01/02 12:46:01;;;;;;;11.77;6.43;;;;;;;;;;6127402;23;20176;-88
2024/01/02 12:48:32;;;;;;;6.13;5.20;;;;;;;;;;6128599;23;20286;-88
2024/01/02 12:51:06;;;;;;;7.77;5.83;;;;;;;;;;6155423;23;20274;-88
2024/01/02 12:53:36;;;;;;;6.30;5.67;;;;;;;;;;6128975;23;20186;-88
2024/01/02 12:56:08;;;;;;;12.83;8.83;;;;;;;;;;6154449;23;20168;-89
2024/01/02 12:58:37;;;;;;;8.60;7.20;;;;;;;;;;6129372;23;20183;-89
2024/01/02 13:01:06;;;;;;;10.37;8.60;;;;;;;;;;6130074;23;20246;-89
2024/01/02 13:03:34;;;;;;;10.73;9.73;;;;;;;;;;6129584;23;20176;-89
2024/01/02 13:06:06;;;;;;;11.70;10.60;;;;;;;;;;6129097;23;20231;-89
2024/01/02 13:08:35;;;;;;;11.43;10.30;;;;;;;;;;6129247;23;20263;-88
2024/01/02 13:11:04;;;;;;;10.53;9.53;;;;;;;;;;6155824;23;20233;-89
2024/01/02 13:13:36;;;;;;;8.90;8.00;;;;;;;;;;6129243;23;20203;-89
2024/01/02 13:16:06;;;;;;;10.23;9.27;;;;;;;;;;6128177;23;20179;-87
2024/01/02 13:18:35;;;;;;;6.43;5.83;;;;;;;;;;6155357;23;20176;-88
2024/01/02 13:21:05;;;;;;;6.67;5.97;;;;;;;;;;6129400;23;20180;-88
2024/01/02 13:23:34;;;;;;;6.90;6.20;;;;;;;;;;6129970;23;20188;-88
2024/01/02 13:26:05;;;;;;;6.20;5.70;;;;;;;;;;6128931;23;20184;-89
2024/01/02 13:28:38;;;;;;;5.07;3.83;;;;;;;;;;6128966;23;20176;-89
2024/01/02 13:31:08;;;;;;;3.73;3.43;;;;;;;;;;6129166;23;20191;-88
2024/01/02 13:33:40;;;;;;;5.50;5.00;;;;;;;;;;6129667;23;20240;-87
2024/01/02 13:36:10;;;;;;;4.00;3.70;;;;;;;;;;6154527;23;20179;-88
2024/01/02 13:38:44;;;;;;;4.80;4.37;;;;;;;;;;6123628;23;20257;-88
2024/01/02 13:41:15;;;;;;;5.43;4.67;;;;;;;;;;6124818;23;20173;-88
2024/01/02 13:43:44;;;;;;;4.80;4.40;;;;;;;;;;6123466;23;20172;-88
2024/01/02 13:46:14;;;;;;;5.20;4.70;;;;;;;;;;6126161;23;20170;-87
2024/01/02 13:48:52;;;;;;;4.87;4.10;;;;;;;;;;6126622;23;20177;-86
2024/01/02 13:51:23;;;;;;;6.53;5.67;;;;;;;;;;6130029;23;20226;-87
2024/01/02 13:53:54;;;;;;;6.23;5.57;;;;;;;;;;6129525;23;20180;-89
2024/01/02 13:56:23;;;;;;;5.67;4.03;;;;;;;;;;6129973;23;20192;-88
2024/01/02 13:59:00;;;;;;;4.53;4.13;;;;;;;;;;6131398;23;20180;-88
2024/01/02 14:01:30;;;;;;;6.20;5.60;;;;;;;;;;6134219;23;20235;-89
2024/01/02 14:03:59;;;;;;;3.27;3.00;;;;;;;;;;6132335;23;20275;-89
2024/01/02 14:06:30;;;;;;;6.67;5.70;;;;;;;;;;6134824;23;20206;-88
2024/01/02 14:09:24;;;;;;;6.37;5.67;;;;;;;;;;6133769;23;20224;-85
2024/01/02 14:11:56;;;;;;;6.20;5.20;;;;;;;;;;6109530;23;20197;-86
2024/01/02 14:14:28;;;;;;;4.27;3.87;;;;;;;;;;6127882;23;20204;-86
2024/01/02 14:17:12;;;;;;;5.70;4.87;;;;;;;;;;6125667;23;20212;-87
2024/01/02 14:19:45;;;;;;;5.07;4.57;;;;;;;;;;6126471;23;20176;-87
2024/01/02 14:22:23;;;;;;;4.03;3.20;;;;;;;;;;6124963;23;20210;-85
2024/01/02 14:24:57;;;;;;;5.40;5.00;;;;;;;;;;6124348;23;20247;-86
2024/01/02 14:27:30;;;;;;;4.77;4.37;;;;;;;;;;6124110;23;20190;-85
2024/01/02 14:30:05;;;;;;;5.73;4.60;;;;;;;;;;6124601;23;20178;-86
2024/01/02 14:32:44;;;;;;;4.57;4.10;;;;;;;;;;6126177;23;20287;-85
2024/01/02 14:35:18;;;;;;;6.23;4.60;;;;;;;;;;6127535;23;20182;-86
2024/01/02 14:37:57;;;;;;;4.10;3.70;;;;;;;;;;6127149;23;20179;-86
2024/01/02 14:40:31;;;;;;;5.03;4.50;;;;;;;;;;6104543;23;20185;-86
2024/01/02 14:43:10;;;;;;;6.20;5.60;;;;;;;;;;6129475;23;20173;-85
2024/01/02 14:45:48;;;;;;;5.17;4.33;;;;;;;;;;6129363;23;20175;-87
2024/01/02 14:48:21;;;;;;;6.77;5.97;;;;;;;;;;6158296;23;20196;-87
2024/01/02 14:51:08;;;;;;;6.10;5.60;;;;;;;;;;6130185;23;20188;-87
2024/01/02 14:53:43;;;;;;;7.03;6.37;;;;;;;;;;6129279;23;20214;-87
2024/01/02 14:56:32;;;;;;;6.03;5.30;;;;;;;;;;6131343;23;20180;-86
2024/01/02 14:59:11;;;;;;;6.00;5.40;;;;;;;;;;6157734;23;20172;-88